createdAt,value
2023-05-15T00:00:44.557Z,13.24
2023-05-15T00:03:29.135Z,13.24
2023-05-15T00:05:57.826Z,13.21
2023-05-15T00:08:25.841Z,13.19
2023-05-15T00:11:01.438Z,13.16
2023-05-15T00:13:30.243Z,13.13
2023-05-15T00:15:58.389Z,13.04
2023-05-15T00:18:27.390Z,13.04
2023-05-15T00:20:55.598Z,12.94
2023-05-15T00:23:23.546Z,12.87
2023-05-15T00:25:51.760Z,12.84
2023-05-15T00:28:19.756Z,12.80
2023-05-15T00:30:47.805Z,12.77
2023-05-15T00:33:15.772Z,12.73
2023-05-15T00:35:44.219Z,12.71
2023-05-15T00:38:12.197Z,12.68
2023-05-15T00:40:42.112Z,12.64
2023-05-15T00:43:11.731Z,12.61
2023-05-15T00:45:41.502Z,12.56
2023-05-15T00:48:10.111Z,12.50
2023-05-15T00:50:43.649Z,12.51
2023-05-15T00:53:11.810Z,12.47
2023-05-15T00:55:41.204Z,12.44
2023-05-15T00:58:10.926Z,12.41
2023-05-15T01:00:39.270Z,12.41
2023-05-15T01:03:07.411Z,12.41
2023-05-15T01:05:35.772Z,12.40
2023-05-15T01:08:15.818Z,12.36
2023-05-15T01:10:45.745Z,12.36
2023-05-15T01:13:15.589Z,12.35
2023-05-15T01:15:43.776Z,12.31
2023-05-15T01:18:12.555Z,12.31
2023-05-15T01:21:11.307Z,12.31
2023-05-15T01:24:07.209Z,12.31
2023-05-15T01:26:47.622Z,12.28
2023-05-15T01:29:56.592Z,12.30
2023-05-15T01:32:47.906Z,12.28
2023-05-15T01:35:31.275Z,12.29
2023-05-15T01:38:33.211Z,12.30
2023-05-15T01:41:27.453Z,12.31
2023-05-15T01:44:08.592Z,12.32
2023-05-15T01:46:42.873Z,12.33
2023-05-15T01:49:13.721Z,12.36
2023-05-15T01:51:44.381Z,12.38
2023-05-15T01:54:14.969Z,12.41
2023-05-15T01:56:46.866Z,12.41
2023-05-15T01:59:16.063Z,12.44
2023-05-15T02:01:46.379Z,12.47
2023-05-15T02:04:15.381Z,12.50
2023-05-15T02:06:44.067Z,12.51
2023-05-15T02:09:12.552Z,12.51
2023-05-15T02:11:42.052Z,12.51
2023-05-15T02:14:12.677Z,12.48
2023-05-15T02:16:41.239Z,12.49
2023-05-15T02:19:09.444Z,12.49
2023-05-15T02:21:37.506Z,12.48
2023-05-15T02:24:05.713Z,12.45
2023-05-15T02:27:07.403Z,12.46
2023-05-15T02:30:13.790Z,12.45
2023-05-15T02:33:04.066Z,12.44
2023-05-15T02:35:47.014Z,12.45
2023-05-15T02:38:23.342Z,12.48
2023-05-15T02:40:51.475Z,12.51
2023-05-15T02:43:20.284Z,12.51
2023-05-15T02:45:49.562Z,12.50
2023-05-15T02:48:19.068Z,12.53
2023-05-15T02:50:47.079Z,12.52
2023-05-15T02:53:16.169Z,12.52
2023-05-15T02:55:44.262Z,12.49
2023-05-15T02:58:12.628Z,12.51
2023-05-15T03:00:40.645Z,12.50
2023-05-15T03:03:08.723Z,12.50
2023-05-15T03:05:36.736Z,12.53
2023-05-15T03:08:05.510Z,12.56
2023-05-15T03:10:33.868Z,12.57
2023-05-15T03:13:02.725Z,12.52
2023-05-15T03:15:30.883Z,12.49
2023-05-15T03:17:59.027Z,12.49
2023-05-15T03:20:26.988Z,12.51
2023-05-15T03:22:55.230Z,12.53
2023-05-15T03:25:23.516Z,12.55
2023-05-15T03:27:51.726Z,12.57
2023-05-15T03:30:19.857Z,12.59
2023-05-15T03:32:47.936Z,12.61
2023-05-15T03:35:16.237Z,12.64
2023-05-15T03:37:44.877Z,12.66
2023-05-15T03:40:13.446Z,12.69
2023-05-15T03:42:41.631Z,12.71
2023-05-15T03:45:09.962Z,12.72
2023-05-15T03:47:38.235Z,12.73
2023-05-15T03:50:06.764Z,12.75
2023-05-15T03:52:34.797Z,12.78
2023-05-15T03:55:02.949Z,12.79
2023-05-15T03:57:32.206Z,12.82
2023-05-15T04:00:01.317Z,12.85
2023-05-15T04:02:29.537Z,12.88
2023-05-15T04:04:57.704Z,12.91
2023-05-15T04:07:26.171Z,12.91
2023-05-15T04:09:54.104Z,12.91
2023-05-15T04:12:23.501Z,12.97
2023-05-15T04:14:51.445Z,13.00
2023-05-15T04:17:19.517Z,13.00
2023-05-15T04:19:48.123Z,13.03
2023-05-15T04:22:16.192Z,13.06
2023-05-15T04:24:54.716Z,13.09
2023-05-15T04:27:23.093Z,13.15
2023-05-15T04:29:50.972Z,13.21
2023-05-15T04:32:19.555Z,13.23
2023-05-15T04:34:47.978Z,13.31
2023-05-15T04:37:17.851Z,13.37
2023-05-15T04:39:46.254Z,13.34
2023-05-15T04:42:14.607Z,13.31
2023-05-15T04:44:42.928Z,13.36
2023-05-15T04:47:11.612Z,13.38
2023-05-15T04:49:43.556Z,13.31
2023-05-15T04:52:12.097Z,13.36
2023-05-15T04:54:40.611Z,13.37
2023-05-15T04:57:09.688Z,13.37
2023-05-15T04:59:37.677Z,13.48
2023-05-15T05:02:05.873Z,13.48
2023-05-15T05:04:35.175Z,13.50
2023-05-15T05:07:05.921Z,13.47
2023-05-15T05:09:35.095Z,13.54
2023-05-15T05:12:03.515Z,13.67
2023-05-15T05:14:32.357Z,13.71
2023-05-15T05:17:00.629Z,13.74
2023-05-15T05:19:28.697Z,13.87
2023-05-15T05:21:58.646Z,14.00
2023-05-15T05:24:26.918Z,14.06
2023-05-15T05:26:58.343Z,14.05
2023-05-15T05:29:26.563Z,14.14
2023-05-15T05:31:54.787Z,14.29
2023-05-15T05:34:23.079Z,14.42
2023-05-15T05:36:51.533Z,14.58
2023-05-15T05:39:19.568Z,14.69
2023-05-15T05:41:48.015Z,14.81
2023-05-15T05:44:16.270Z,15.02
2023-05-15T05:46:45.538Z,15.17
2023-05-15T05:49:13.869Z,15.33
2023-05-15T05:51:41.889Z,15.36
2023-05-15T05:54:11.111Z,15.46
2023-05-15T05:56:39.158Z,15.46
2023-05-15T05:59:07.259Z,15.45
2023-05-15T06:01:37.494Z,15.58
2023-05-15T06:04:06.341Z,15.75
2023-05-15T06:06:35.411Z,15.93
2023-05-15T06:09:04.321Z,16.06
2023-05-15T06:11:33.308Z,15.94
2023-05-15T06:14:02.413Z,16.19
2023-05-15T06:16:30.992Z,16.40
2023-05-15T06:18:59.521Z,16.67
2023-05-15T06:21:29.154Z,16.88
2023-05-15T06:23:57.267Z,16.98
2023-05-15T06:26:25.765Z,17.20
2023-05-15T06:28:53.799Z,17.25
2023-05-15T06:31:23.298Z,17.35
2023-05-15T06:33:53.306Z,17.48
2023-05-15T06:36:24.621Z,17.52
2023-05-15T06:38:53.987Z,17.63
2023-05-15T06:41:22.807Z,17.91
2023-05-15T06:43:52.340Z,18.10
2023-05-15T06:46:24.216Z,18.07
2023-05-15T06:48:57.845Z,17.86
2023-05-15T06:51:29.627Z,17.50
2023-05-15T06:54:00.496Z,17.29
2023-05-15T06:56:29.977Z,17.35
2023-05-15T06:59:04.347Z,17.26
2023-05-15T07:01:39.034Z,17.39
2023-05-15T07:04:13.562Z,17.69
2023-05-15T07:06:45.686Z,17.59
2023-05-15T07:09:18.802Z,17.68
2023-05-15T07:11:49.686Z,17.92
2023-05-15T07:14:22.294Z,18.03
2023-05-15T07:16:53.857Z,18.15
2023-05-15T07:19:22.346Z,18.41
2023-05-15T07:21:50.574Z,18.58
2023-05-15T07:24:32.492Z,18.78
2023-05-15T07:27:02.386Z,18.88
2023-05-15T07:29:30.956Z,18.85
2023-05-15T07:32:15.367Z,18.84
2023-05-15T07:34:51.357Z,18.91
2023-05-15T07:37:20.274Z,19.17
2023-05-15T07:39:57.847Z,19.31
2023-05-15T07:42:35.323Z,19.39
2023-05-15T07:45:08.546Z,19.54
2023-05-15T07:47:45.956Z,19.67
2023-05-15T07:50:18.247Z,19.68
2023-05-15T07:52:49.524Z,19.92
2023-05-15T07:55:20.224Z,20.37
2023-05-15T07:57:53.916Z,20.64
2023-05-15T08:00:30.230Z,21.06
2023-05-15T08:03:15.290Z,21.30
2023-05-15T08:05:51.892Z,21.31
2023-05-15T08:08:23.998Z,21.34
2023-05-15T08:10:53.484Z,21.20
2023-05-15T08:13:22.413Z,20.94
2023-05-15T08:16:01.021Z,20.91
2023-05-15T08:18:29.803Z,20.62
2023-05-15T08:20:58.186Z,20.78
2023-05-15T08:23:27.003Z,20.99
2023-05-15T08:25:55.774Z,20.94
2023-05-15T08:28:24.264Z,21.04
2023-05-15T08:30:53.758Z,21.13
2023-05-15T08:33:25.361Z,20.85
2023-05-15T08:35:54.001Z,20.73
2023-05-15T08:38:27.115Z,20.64
2023-05-15T08:40:58.503Z,20.50
2023-05-15T08:43:32.169Z,20.45
2023-05-15T08:46:01.398Z,20.39
2023-05-15T08:48:30.548Z,20.52
2023-05-15T08:51:01.779Z,20.58
2023-05-15T08:53:31.559Z,20.49
2023-05-15T08:56:00.263Z,20.54
2023-05-15T08:58:30.880Z,20.52
2023-05-15T09:01:02.769Z,20.53
2023-05-15T09:03:32.451Z,20.33
2023-05-15T09:06:04.446Z,20.32
2023-05-15T09:08:35.420Z,20.50
2023-05-15T09:11:09.304Z,20.51
2023-05-15T09:13:37.564Z,20.32
2023-05-15T09:16:07.508Z,20.29
2023-05-15T09:18:36.582Z,20.03
2023-05-15T09:21:33.896Z,20.26
2023-05-15T09:24:27.762Z,20.24
2023-05-15T09:27:08.626Z,20.12
2023-05-15T09:29:39.263Z,20.17
2023-05-15T09:32:10.124Z,20.22
2023-05-15T09:34:44.064Z,20.13
2023-05-15T09:37:38.437Z,20.25
2023-05-15T09:40:11.902Z,20.27
2023-05-15T09:42:44.219Z,20.18
2023-05-15T09:45:18.464Z,20.24
2023-05-15T09:47:48.657Z,20.32
2023-05-15T09:50:23.758Z,20.44
2023-05-15T09:52:59.332Z,20.14
2023-05-15T09:55:29.114Z,20.26
2023-05-15T09:58:11.526Z,20.19
2023-05-15T10:00:48.083Z,20.30
2023-05-15T10:03:23.938Z,20.23
2023-05-15T10:06:04.411Z,19.99
2023-05-15T10:08:34.827Z,20.18
2023-05-15T10:11:04.298Z,20.31
2023-05-15T10:13:37.145Z,20.17
2023-05-15T10:16:07.059Z,20.32
2023-05-15T10:18:41.598Z,20.25
2023-05-15T10:21:20.849Z,20.38
2023-05-15T10:23:53.103Z,20.46
2023-05-15T10:26:38.840Z,20.55
2023-05-15T10:29:19.016Z,20.77
2023-05-15T10:31:52.704Z,20.88
2023-05-15T10:34:23.300Z,20.97
2023-05-15T10:36:52.355Z,21.11
2023-05-15T10:39:23.707Z,21.28
2023-05-15T10:41:54.630Z,21.51
2023-05-15T10:44:24.253Z,21.88
2023-05-15T10:46:53.941Z,22.27
2023-05-15T10:49:22.326Z,22.32
2023-05-15T10:51:53.184Z,22.28
2023-05-15T10:54:23.831Z,22.49
2023-05-15T10:56:56.313Z,22.58
2023-05-15T11:02:41.494Z,22.69
2023-05-15T11:05:11.811Z,22.56
2023-05-15T11:07:42.249Z,22.16
2023-05-15T11:10:30.580Z,22.35
2023-05-15T11:13:00.007Z,22.52
2023-05-15T11:15:42.229Z,22.49
2023-05-15T11:18:10.779Z,22.55
2023-05-15T11:20:42.434Z,22.64
2023-05-15T11:23:11.353Z,22.67
2023-05-15T11:25:39.719Z,22.55
2023-05-15T11:28:22.205Z,22.33
2023-05-15T11:31:00.518Z,22.18
2023-05-15T11:33:32.179Z,22.13
2023-05-15T11:36:01.276Z,22.08
2023-05-15T11:38:39.298Z,21.97
2023-05-15T11:41:20.044Z,21.89
2023-05-15T11:43:50.586Z,21.89
2023-05-15T11:46:21.046Z,21.77
2023-05-15T11:48:50.844Z,21.70
2023-05-15T11:51:25.499Z,21.75
2023-05-15T11:53:55.464Z,21.67
2023-05-15T11:56:25.886Z,21.58
2023-05-15T11:58:59.494Z,21.43
2023-05-15T12:01:29.922Z,21.28
2023-05-15T12:03:58.762Z,21.09
2023-05-15T12:06:27.877Z,21.02
2023-05-15T12:08:56.778Z,20.95
2023-05-15T12:11:25.877Z,20.75
2023-05-15T12:13:55.641Z,20.54
2023-05-15T12:16:26.474Z,20.35
2023-05-15T12:18:59.191Z,20.27
2023-05-15T12:21:28.482Z,20.26
2023-05-15T12:24:06.861Z,20.13
2023-05-15T12:26:36.590Z,20.11
2023-05-15T12:29:05.873Z,20.19
2023-05-15T12:31:35.450Z,20.20
2023-05-15T12:34:04.825Z,20.26
2023-05-15T12:36:33.486Z,20.26
2023-05-15T12:39:08.447Z,20.28
2023-05-15T12:41:39.080Z,20.17
2023-05-15T12:44:17.205Z,20.16
2023-05-15T12:46:48.667Z,20.06
2023-05-15T12:49:22.868Z,20.17
2023-05-15T12:51:52.195Z,20.21
2023-05-15T12:54:21.594Z,20.10
2023-05-15T12:56:51.288Z,19.91
2023-05-15T12:59:20.799Z,20.14
2023-05-15T13:01:49.493Z,20.11
2023-05-15T13:04:17.855Z,20.21
2023-05-15T13:06:47.827Z,20.34
2023-05-15T13:09:22.703Z,20.40
2023-05-15T13:11:51.105Z,20.49
2023-05-15T13:14:23.794Z,20.56
2023-05-15T13:16:52.169Z,20.69
2023-05-15T13:19:21.227Z,20.76
2023-05-15T13:21:53.312Z,20.77
2023-05-15T13:24:22.529Z,20.92
2023-05-15T13:26:53.198Z,20.98
2023-05-15T13:29:21.784Z,20.92
2023-05-15T13:31:52.558Z,20.96
2023-05-15T13:34:21.812Z,20.95
2023-05-15T13:36:50.075Z,20.91
2023-05-15T13:39:22.978Z,20.92
2023-05-15T13:41:54.470Z,21.02
2023-05-15T13:44:23.224Z,21.14
2023-05-15T13:46:53.933Z,21.11
2023-05-15T13:49:22.244Z,21.26
2023-05-15T13:51:50.652Z,21.17
2023-05-15T13:54:19.090Z,21.12
2023-05-15T13:56:47.697Z,21.13
2023-05-15T13:59:15.941Z,21.16
2023-05-15T14:01:46.479Z,21.29
2023-05-15T14:04:14.817Z,21.40
2023-05-15T14:06:44.016Z,21.40
2023-05-15T14:09:12.870Z,21.52
2023-05-15T14:11:41.397Z,21.80
2023-05-15T14:14:10.197Z,22.03
2023-05-15T14:16:39.219Z,22.21
2023-05-15T14:19:07.828Z,22.41
2023-05-15T14:21:37.067Z,22.67
2023-05-15T14:24:05.644Z,22.87
2023-05-15T14:26:37.451Z,22.96
2023-05-15T14:29:06.121Z,22.84
2023-05-15T14:31:35.041Z,22.88
2023-05-15T14:34:05.775Z,22.90
2023-05-15T14:36:34.095Z,22.86
2023-05-15T14:39:04.338Z,23.08
2023-05-15T14:41:33.056Z,23.08
2023-05-15T14:44:01.329Z,22.93
2023-05-15T14:46:29.578Z,22.63
2023-05-15T14:48:57.779Z,22.39
2023-05-15T14:51:29.414Z,22.32
2023-05-15T14:53:58.543Z,22.33
2023-05-15T14:56:26.864Z,22.21
2023-05-15T14:58:55.000Z,22.01
2023-05-15T15:01:24.212Z,22.07
2023-05-15T15:03:52.988Z,22.08
2023-05-15T15:06:21.254Z,21.95
2023-05-15T15:08:50.920Z,21.87
2023-05-15T15:11:19.822Z,21.72
2023-05-15T15:13:48.147Z,21.59
2023-05-15T15:16:16.453Z,21.56
2023-05-15T15:18:45.565Z,21.38
2023-05-15T15:21:13.866Z,21.37
2023-05-15T15:23:42.201Z,21.35
2023-05-15T15:26:10.347Z,21.29
2023-05-15T15:28:38.496Z,21.29
2023-05-15T15:31:06.749Z,21.15
2023-05-15T15:33:35.029Z,21.20
2023-05-15T15:36:03.607Z,21.24
2023-05-15T15:38:32.279Z,21.16
2023-05-15T15:41:05.730Z,21.11
2023-05-15T15:43:34.257Z,21.05
2023-05-15T15:46:02.817Z,20.97
2023-05-15T15:48:31.092Z,20.95
2023-05-15T15:50:59.461Z,20.94
2023-05-15T15:53:29.745Z,20.95
2023-05-15T15:55:58.590Z,20.95
2023-05-15T15:58:26.970Z,20.95
2023-05-15T16:00:55.941Z,21.04
2023-05-15T16:03:24.570Z,21.11
2023-05-15T16:05:53.003Z,21.16
2023-05-15T16:08:21.217Z,21.23
2023-05-15T16:10:49.424Z,21.28
2023-05-15T16:13:17.648Z,21.31
2023-05-15T16:15:45.810Z,21.27
2023-05-15T16:18:14.482Z,21.28
2023-05-15T16:20:44.822Z,21.28
2023-05-15T16:23:17.855Z,21.23
2023-05-15T16:25:45.871Z,21.16
2023-05-15T16:28:16.455Z,21.11
2023-05-15T16:30:49.592Z,21.06
2023-05-15T16:33:20.067Z,21.00
2023-05-15T16:35:48.217Z,20.94
2023-05-15T16:38:17.230Z,20.91
2023-05-15T16:40:46.266Z,20.90
2023-05-15T16:43:14.658Z,20.88
2023-05-15T16:45:44.838Z,20.81
2023-05-15T16:48:13.028Z,20.76
2023-05-15T16:50:42.231Z,20.62
2023-05-15T16:53:10.433Z,20.57
2023-05-15T16:55:38.694Z,20.48
2023-05-15T16:58:06.939Z,20.40
2023-05-15T17:00:35.066Z,20.34
2023-05-15T17:03:05.020Z,20.26
2023-05-15T17:05:34.183Z,20.21
2023-05-15T17:08:02.423Z,20.13
2023-05-15T17:10:30.622Z,20.07
2023-05-15T17:12:58.872Z,20.02
2023-05-15T17:15:27.744Z,19.94
2023-05-15T17:17:56.062Z,19.89
2023-05-15T17:20:24.844Z,19.82
2023-05-15T17:22:53.350Z,19.75
2023-05-15T17:25:23.888Z,19.71
2023-05-15T17:27:52.108Z,19.65
2023-05-15T17:30:21.534Z,19.62
2023-05-15T17:32:49.998Z,19.57
2023-05-15T17:35:19.054Z,19.56
2023-05-15T17:37:47.126Z,19.52
2023-05-15T17:40:15.500Z,19.49
2023-05-15T17:42:43.806Z,19.47
2023-05-15T17:45:12.488Z,19.43
2023-05-15T17:47:40.474Z,19.40
2023-05-15T17:50:09.821Z,19.36
2023-05-15T17:52:38.273Z,19.31
2023-05-15T17:55:07.344Z,19.27
2023-05-15T17:57:35.890Z,19.24
2023-05-15T18:00:07.733Z,19.20
2023-05-15T18:02:40.240Z,19.15
2023-05-15T18:05:08.954Z,19.11
2023-05-15T18:07:36.913Z,19.10
2023-05-15T18:10:06.701Z,19.09
2023-05-15T18:12:35.395Z,19.06
2023-05-15T18:15:03.788Z,19.05
2023-05-15T18:17:31.977Z,19.01
2023-05-15T18:20:00.152Z,18.99
2023-05-15T18:22:28.283Z,18.98
2023-05-15T18:24:56.340Z,18.96
2023-05-15T18:27:24.414Z,18.97
2023-05-15T18:29:52.672Z,18.96
2023-05-15T18:32:20.870Z,18.91
2023-05-15T18:34:49.301Z,18.79
2023-05-15T18:37:17.342Z,18.64
2023-05-15T18:39:45.947Z,18.50
2023-05-15T18:42:14.260Z,18.27
2023-05-15T18:44:42.565Z,18.13
2023-05-15T18:47:11.769Z,17.97
2023-05-15T18:49:39.794Z,17.71
2023-05-15T18:52:10.363Z,17.50
2023-05-15T18:54:42.192Z,17.47
2023-05-15T18:57:10.312Z,17.41
2023-05-15T18:59:38.589Z,17.34
2023-05-15T19:02:09.369Z,17.29
2023-05-15T19:04:38.232Z,17.26
2023-05-15T19:07:06.881Z,17.18
2023-05-15T19:09:35.553Z,17.13
2023-05-15T19:12:03.793Z,17.05
2023-05-15T19:14:33.729Z,16.97
2023-05-15T19:17:02.275Z,16.90
2023-05-15T19:19:30.522Z,16.85
2023-05-15T19:21:58.825Z,16.81
2023-05-15T19:24:27.272Z,16.76
2023-05-15T19:26:55.329Z,16.71
2023-05-15T19:29:23.390Z,16.66
2023-05-15T19:31:52.576Z,16.61
2023-05-15T19:34:22.542Z,16.56
2023-05-15T19:36:51.008Z,16.50
2023-05-15T19:39:19.267Z,16.46
2023-05-15T19:41:47.411Z,16.44
2023-05-15T19:44:15.775Z,16.38
2023-05-15T19:46:45.214Z,16.37
2023-05-15T19:49:13.455Z,16.34
2023-05-15T19:51:41.624Z,16.31
2023-05-15T19:54:11.217Z,16.29
2023-05-15T19:56:39.270Z,16.27
2023-05-15T19:59:07.313Z,16.26
2023-05-15T20:01:35.453Z,16.24
2023-05-15T20:04:03.706Z,16.24
2023-05-15T20:06:31.850Z,16.22
2023-05-15T20:08:59.866Z,16.23
2023-05-15T20:11:27.906Z,16.20
2023-05-15T20:13:55.925Z,16.20
2023-05-15T20:16:23.957Z,16.16
2023-05-15T20:18:55.100Z,16.15
2023-05-15T20:21:23.227Z,16.13
2023-05-15T20:23:51.237Z,16.17
2023-05-15T20:26:22.345Z,16.14
2023-05-15T20:28:50.487Z,16.14
2023-05-15T20:31:18.763Z,16.12
2023-05-15T20:33:46.988Z,16.11
2023-05-15T20:36:16.823Z,16.08
2023-05-15T20:38:45.137Z,16.10
2023-05-15T20:41:13.186Z,16.12
2023-05-15T20:43:41.261Z,16.11
2023-05-15T20:46:09.895Z,16.11
2023-05-15T20:48:37.821Z,16.12
2023-05-15T20:51:05.896Z,16.10
2023-05-15T20:53:33.935Z,16.02
2023-05-15T20:56:03.271Z,15.97
2023-05-15T20:58:31.599Z,15.95
2023-05-15T21:01:01.132Z,15.92
2023-05-15T21:03:29.531Z,15.86
2023-05-15T21:05:57.831Z,15.80
2023-05-15T21:08:27.810Z,15.75
2023-05-15T21:10:55.942Z,15.67
2023-05-15T21:13:24.068Z,15.66
2023-05-15T21:15:52.165Z,15.64
2023-05-15T21:18:20.194Z,15.62
2023-05-15T21:20:48.307Z,15.57
2023-05-15T21:23:16.597Z,15.55
2023-05-15T21:25:44.882Z,15.53
2023-05-15T21:28:12.924Z,15.51
2023-05-15T21:30:40.904Z,15.51
2023-05-15T21:33:09.283Z,15.52
2023-05-15T21:35:38.114Z,15.50
2023-05-15T21:38:06.776Z,15.49
2023-05-15T21:40:34.699Z,15.49
2023-05-15T21:43:02.684Z,15.49
2023-05-15T21:45:30.772Z,15.50
2023-05-15T21:47:59.066Z,15.45
2023-05-15T21:50:27.593Z,15.45
2023-05-15T21:52:55.807Z,15.43
2023-05-15T21:55:23.749Z,15.42
2023-05-15T21:57:51.918Z,15.41
2023-05-15T22:00:20.468Z,15.38
2023-05-15T22:02:48.522Z,15.37
2023-05-15T22:05:17.329Z,15.39
2023-05-15T22:07:45.192Z,15.40
2023-05-15T22:10:16.545Z,15.40
2023-05-15T22:13:02.814Z,15.40
2023-05-15T22:15:31.079Z,15.38
2023-05-15T22:18:00.361Z,15.36
2023-05-15T22:20:29.086Z,15.33
2023-05-15T22:22:57.086Z,15.29
2023-05-15T22:25:25.292Z,15.23
2023-05-15T22:27:53.469Z,15.11
2023-05-15T22:30:21.651Z,14.99
2023-05-15T22:32:49.747Z,14.86
2023-05-15T22:35:18.861Z,14.78
2023-05-15T22:37:47.437Z,14.67
2023-05-15T22:40:15.644Z,14.55
2023-05-15T22:42:43.948Z,14.49
2023-05-15T22:45:12.056Z,14.40
2023-05-15T22:47:40.133Z,14.34
2023-05-15T22:50:09.666Z,14.28
2023-05-15T22:52:38.508Z,14.21
2023-05-15T22:55:16.115Z,14.16
2023-05-15T22:57:44.434Z,14.10
2023-05-15T23:00:13.079Z,14.09
2023-05-15T23:02:43.545Z,14.08
2023-05-15T23:05:12.873Z,14.08
2023-05-15T23:07:49.411Z,14.06
2023-05-15T23:10:20.674Z,14.04
2023-05-15T23:12:48.658Z,13.99
2023-05-15T23:15:16.715Z,13.96
2023-05-15T23:17:44.772Z,13.90
2023-05-15T23:20:15.597Z,13.89
2023-05-15T23:22:43.580Z,13.88
2023-05-15T23:25:12.037Z,13.89
2023-05-15T23:27:40.057Z,13.88
2023-05-15T23:30:08.745Z,13.87
2023-05-15T23:32:36.853Z,13.79
2023-05-15T23:35:05.232Z,13.72
2023-05-15T23:37:33.334Z,13.73
2023-05-15T23:40:01.358Z,13.71
2023-05-15T23:42:29.910Z,13.67
2023-05-15T23:44:57.849Z,13.65
2023-05-15T23:47:26.047Z,13.64
2023-05-15T23:49:53.994Z,13.62
2023-05-15T23:52:22.553Z,13.60
2023-05-15T23:54:50.561Z,13.58
2023-05-15T23:57:18.587Z,13.58
2023-05-15T23:59:46.682Z,13.57
